sensor_id;sensor_type;location;lat;lon;timestamp;P1;durP1;ratioP1;P2;durP2;ratioP2
47760;SDS011;33524;55.434;38.520;2023-05-29T00:02:22;11.80;;;6.25;;
47760;SDS011;33524;55.434;38.520;2023-05-29T00:04:50;10.57;;;4.95;;
47760;SDS011;33524;55.434;38.520;2023-05-29T00:07:18;8.32;;;5.25;;
47760;SDS011;33524;55.434;38.520;2023-05-29T00:09:46;11.38;;;6.15;;
47760;SDS011;33524;55.434;38.520;2023-05-29T00:12:15;9.52;;;5.45;;
47760;SDS011;33524;55.434;38.520;2023-05-29T00:14:43;11.90;;;7.57;;
47760;SDS011;33524;55.434;38.520;2023-05-29T00:17:11;10.68;;;7.15;;
47760;SDS011;33524;55.434;38.520;2023-05-29T00:19:40;10.13;;;5.75;;
47760;SDS011;33524;55.434;38.520;2023-05-29T00:22:09;9.25;;;5.57;;
47760;SDS011;33524;55.434;38.520;2023-05-29T00:24:37;17.00;;;9.88;;
47760;SDS011;33524;55.434;38.520;2023-05-29T00:27:06;21.00;;;13.55;;
47760;SDS011;33524;55.434;38.520;2023-05-29T00:29:34;21.48;;;13.77;;
47760;SDS011;33524;55.434;38.520;2023-05-29T00:32:04;19.23;;;12.73;;
47760;SDS011;33524;55.434;38.520;2023-05-29T00:34:33;20.33;;;11.25;;
47760;SDS011;33524;55.434;38.520;2023-05-29T00:37:01;13.60;;;8.05;;
47760;SDS011;33524;55.434;38.520;2023-05-29T00:39:30;23.42;;;11.60;;
47760;SDS011;33524;55.434;38.520;2023-05-29T00:41:59;23.38;;;14.52;;
47760;SDS011;33524;55.434;38.520;2023-05-29T00:44:27;13.62;;;8.73;;
47760;SDS011;33524;55.434;38.520;2023-05-29T00:46:55;17.15;;;10.93;;
47760;SDS011;33524;55.434;38.520;2023-05-29T00:49:24;10.45;;;6.85;;
47760;SDS011;33524;55.434;38.520;2023-05-29T00:51:53;13.98;;;8.25;;
47760;SDS011;33524;55.434;38.520;2023-05-29T00:54:26;10.20;;;6.78;;
47760;SDS011;33524;55.434;38.520;2023-05-29T00:56:57;13.62;;;6.28;;
47760;SDS011;33524;55.434;38.520;2023-05-29T00:59:27;12.98;;;6.20;;
47760;SDS011;33524;55.434;38.520;2023-05-29T01:01:59;12.98;;;5.82;;
47760;SDS011;33524;55.434;38.520;2023-05-29T01:04:30;11.40;;;5.78;;
47760;SDS011;33524;55.434;38.520;2023-05-29T01:07:01;10.15;;;5.37;;
47760;SDS011;33524;55.434;38.520;2023-05-29T01:09:31;9.45;;;5.55;;
47760;SDS011;33524;55.434;38.520;2023-05-29T01:17:28;7.47;;;5.28;;
47760;SDS011;33524;55.434;38.520;2023-05-29T01:28:51;10.75;;;5.50;;
47760;SDS011;33524;55.434;38.520;2023-05-29T01:31:23;9.40;;;5.40;;
47760;SDS011;33524;55.434;38.520;2023-05-29T01:33:54;9.32;;;4.90;;
47760;SDS011;33524;55.434;38.520;2023-05-29T01:36:24;7.80;;;4.78;;
47760;SDS011;33524;55.434;38.520;2023-05-29T01:38:54;9.00;;;5.12;;
47760;SDS011;33524;55.434;38.520;2023-05-29T01:41:25;8.07;;;4.97;;
47760;SDS011;33524;55.434;38.520;2023-05-29T01:43:54;9.93;;;4.90;;
47760;SDS011;33524;55.434;38.520;2023-05-29T01:46:25;10.18;;;5.57;;
47760;SDS011;33524;55.434;38.520;2023-05-29T01:48:53;9.93;;;5.28;;
47760;SDS011;33524;55.434;38.520;2023-05-29T01:51:24;8.32;;;4.80;;
47760;SDS011;33524;55.434;38.520;2023-05-29T01:53:53;8.05;;;5.03;;
47760;SDS011;33524;55.434;38.520;2023-05-29T01:56:21;10.18;;;4.93;;
47760;SDS011;33524;55.434;38.520;2023-05-29T01:58:50;8.05;;;5.18;;
47760;SDS011;33524;55.434;38.520;2023-05-29T02:01:19;9.05;;;5.20;;
47760;SDS011;33524;55.434;38.520;2023-05-29T02:03:51;10.48;;;6.40;;
47760;SDS011;33524;55.434;38.520;2023-05-29T02:06:19;11.65;;;5.32;;
47760;SDS011;33524;55.434;38.520;2023-05-29T02:08:48;8.20;;;5.25;;
47760;SDS011;33524;55.434;38.520;2023-05-29T02:11:16;9.88;;;5.32;;
47760;SDS011;33524;55.434;38.520;2023-05-29T02:13:45;6.97;;;5.30;;
47760;SDS011;33524;55.434;38.520;2023-05-29T02:16:13;7.62;;;5.32;;
47760;SDS011;33524;55.434;38.520;2023-05-29T02:18:42;10.38;;;5.62;;
47760;SDS011;33524;55.434;38.520;2023-05-29T02:21:11;7.53;;;4.80;;
47760;SDS011;33524;55.434;38.520;2023-05-29T02:23:40;8.45;;;5.70;;
47760;SDS011;33524;55.434;38.520;2023-05-29T02:26:09;11.20;;;5.93;;
47760;SDS011;33524;55.434;38.520;2023-05-29T02:28:40;10.88;;;5.53;;
47760;SDS011;33524;55.434;38.520;2023-05-29T02:31:08;7.75;;;4.70;;
47760;SDS011;33524;55.434;38.520;2023-05-29T02:33:36;8.10;;;5.55;;
47760;SDS011;33524;55.434;38.520;2023-05-29T02:36:05;7.45;;;5.43;;
47760;SDS011;33524;55.434;38.520;2023-05-29T02:38:37;7.45;;;4.43;;
47760;SDS011;33524;55.434;38.520;2023-05-29T02:41:06;7.60;;;5.25;;
47760;SDS011;33524;55.434;38.520;2023-05-29T02:43:34;9.70;;;5.50;;
47760;SDS011;33524;55.434;38.520;2023-05-29T02:46:03;10.57;;;4.90;;
47760;SDS011;33524;55.434;38.520;2023-05-29T02:48:31;10.63;;;5.10;;
47760;SDS011;33524;55.434;38.520;2023-05-29T02:50:59;11.73;;;5.15;;
47760;SDS011;33524;55.434;38.520;2023-05-29T02:53:28;9.45;;;5.12;;
47760;SDS011;33524;55.434;38.520;2023-05-29T02:55:57;8.95;;;5.15;;
47760;SDS011;33524;55.434;38.520;2023-05-29T02:58:25;6.47;;;4.87;;
47760;SDS011;33524;55.434;38.520;2023-05-29T03:00:54;8.93;;;4.32;;
47760;SDS011;33524;55.434;38.520;2023-05-29T03:03:26;7.07;;;4.40;;
47760;SDS011;33524;55.434;38.520;2023-05-29T03:05:54;9.05;;;4.82;;
47760;SDS011;33524;55.434;38.520;2023-05-29T03:08:22;6.07;;;4.03;;
47760;SDS011;33524;55.434;38.520;2023-05-29T03:10:51;7.60;;;4.70;;
47760;SDS011;33524;55.434;38.520;2023-05-29T03:13:21;7.72;;;3.67;;
47760;SDS011;33524;55.434;38.520;2023-05-29T03:15:50;7.28;;;4.85;;
47760;SDS011;33524;55.434;38.520;2023-05-29T03:18:19;7.22;;;3.58;;
47760;SDS011;33524;55.434;38.520;2023-05-29T03:20:47;4.15;;;2.70;;
47760;SDS011;33524;55.434;38.520;2023-05-29T03:23:15;9.38;;;4.30;;
47760;SDS011;33524;55.434;38.520;2023-05-29T03:25:44;6.28;;;3.90;;
47760;SDS011;33524;55.434;38.520;2023-05-29T03:28:12;7.15;;;3.85;;
47760;SDS011;33524;55.434;38.520;2023-05-29T03:30:40;7.35;;;4.32;;
47760;SDS011;33524;55.434;38.520;2023-05-29T03:33:11;6.97;;;4.12;;
47760;SDS011;33524;55.434;38.520;2023-05-29T03:35:42;5.32;;;3.05;;
47760;SDS011;33524;55.434;38.520;2023-05-29T03:38:10;10.40;;;3.50;;
47760;SDS011;33524;55.434;38.520;2023-05-29T03:40:38;6.18;;;3.25;;
47760;SDS011;33524;55.434;38.520;2023-05-29T03:43:07;5.37;;;3.90;;
47760;SDS011;33524;55.434;38.520;2023-05-29T03:45:35;9.18;;;3.80;;
47760;SDS011;33524;55.434;38.520;2023-05-29T03:48:03;6.40;;;3.60;;
47760;SDS011;33524;55.434;38.520;2023-05-29T03:50:32;6.20;;;3.00;;
47760;SDS011;33524;55.434;38.520;2023-05-29T03:53:00;6.15;;;3.65;;
47760;SDS011;33524;55.434;38.520;2023-05-29T03:55:28;7.20;;;3.35;;
47760;SDS011;33524;55.434;38.520;2023-05-29T03:57:56;9.38;;;3.80;;
47760;SDS011;33524;55.434;38.520;2023-05-29T04:00:26;6.00;;;2.80;;
47760;SDS011;33524;55.434;38.520;2023-05-29T04:03:00;5.68;;;2.83;;
47760;SDS011;33524;55.434;38.520;2023-05-29T04:05:29;6.18;;;2.85;;
47760;SDS011;33524;55.434;38.520;2023-05-29T04:07:57;5.20;;;3.00;;
47760;SDS011;33524;55.434;38.520;2023-05-29T04:10:42;5.87;;;3.12;;
47760;SDS011;33524;55.434;38.520;2023-05-29T04:13:22;6.05;;;3.03;;
47760;SDS011;33524;55.434;38.520;2023-05-29T04:15:50;4.95;;;2.90;;
47760;SDS011;33524;55.434;38.520;2023-05-29T04:18:33;6.53;;;3.00;;
47760;SDS011;33524;55.434;38.520;2023-05-29T04:21:01;6.70;;;2.47;;
47760;SDS011;33524;55.434;38.520;2023-05-29T04:23:29;6.65;;;3.03;;
47760;SDS011;33524;55.434;38.520;2023-05-29T04:25:58;4.80;;;2.47;;
47760;SDS011;33524;55.434;38.520;2023-05-29T04:28:30;6.18;;;3.00;;
47760;SDS011;33524;55.434;38.520;2023-05-29T04:30:58;4.00;;;2.17;;
47760;SDS011;33524;55.434;38.520;2023-05-29T04:33:26;4.53;;;2.60;;
47760;SDS011;33524;55.434;38.520;2023-05-29T04:35:57;4.60;;;2.08;;
47760;SDS011;33524;55.434;38.520;2023-05-29T04:38:26;5.10;;;2.08;;
47760;SDS011;33524;55.434;38.520;2023-05-29T04:40:55;4.82;;;2.17;;
47760;SDS011;33524;55.434;38.520;2023-05-29T04:43:26;7.35;;;2.40;;
47760;SDS011;33524;55.434;38.520;2023-05-29T04:45:55;5.57;;;2.15;;
47760;SDS011;33524;55.434;38.520;2023-05-29T04:48:24;8.48;;;2.30;;
47760;SDS011;33524;55.434;38.520;2023-05-29T04:50:53;5.07;;;2.20;;
47760;SDS011;33524;55.434;38.520;2023-05-29T04:53:22;9.40;;;2.70;;
47760;SDS011;33524;55.434;38.520;2023-05-29T04:55:51;2.17;;;1.50;;
47760;SDS011;33524;55.434;38.520;2023-05-29T05:01:06;4.45;;;2.70;;
47760;SDS011;33524;55.434;38.520;2023-05-29T05:03:49;3.15;;;1.42;;
47760;SDS011;33524;55.434;38.520;2023-05-29T05:06:17;4.07;;;2.05;;
47760;SDS011;33524;55.434;38.520;2023-05-29T05:08:46;6.18;;;2.50;;
47760;SDS011;33524;55.434;38.520;2023-05-29T05:11:14;6.12;;;2.30;;
47760;SDS011;33524;55.434;38.520;2023-05-29T05:13:42;4.65;;;2.10;;
47760;SDS011;33524;55.434;38.520;2023-05-29T05:16:11;9.00;;;2.45;;
47760;SDS011;33524;55.434;38.520;2023-05-29T05:18:39;8.68;;;1.70;;
47760;SDS011;33524;55.434;38.520;2023-05-29T05:21:08;3.83;;;1.60;;
47760;SDS011;33524;55.434;38.520;2023-05-29T05:23:36;2.20;;;1.65;;
47760;SDS011;33524;55.434;38.520;2023-05-29T05:26:25;4.43;;;2.17;;
47760;SDS011;33524;55.434;38.520;2023-05-29T05:28:56;6.72;;;2.03;;
47760;SDS011;33524;55.434;38.520;2023-05-29T05:31:25;4.70;;;1.90;;
47760;SDS011;33524;55.434;38.520;2023-05-29T05:33:54;3.85;;;1.87;;
47760;SDS011;33524;55.434;38.520;2023-05-29T05:36:40;6.05;;;1.85;;
47760;SDS011;33524;55.434;38.520;2023-05-29T05:39:10;3.72;;;2.15;;
47760;SDS011;33524;55.434;38.520;2023-05-29T05:41:39;5.10;;;1.83;;
47760;SDS011;33524;55.434;38.520;2023-05-29T05:44:07;4.12;;;1.92;;
47760;SDS011;33524;55.434;38.520;2023-05-29T05:46:36;3.15;;;1.62;;
47760;SDS011;33524;55.434;38.520;2023-05-29T05:49:05;3.53;;;1.60;;
47760;SDS011;33524;55.434;38.520;2023-05-29T05:51:33;4.07;;;1.60;;
47760;SDS011;33524;55.434;38.520;2023-05-29T05:54:01;3.55;;;1.77;;
47760;SDS011;33524;55.434;38.520;2023-05-29T05:56:30;4.05;;;1.60;;
47760;SDS011;33524;55.434;38.520;2023-05-29T05:58:58;1.67;;;1.20;;
47760;SDS011;33524;55.434;38.520;2023-05-29T06:01:27;3.03;;;1.60;;
47760;SDS011;33524;55.434;38.520;2023-05-29T06:03:57;2.33;;;1.27;;
47760;SDS011;33524;55.434;38.520;2023-05-29T06:06:26;2.08;;;1.27;;
47760;SDS011;33524;55.434;38.520;2023-05-29T06:08:57;2.97;;;1.17;;
47760;SDS011;33524;55.434;38.520;2023-05-29T06:11:27;3.12;;;1.37;;
47760;SDS011;33524;55.434;38.520;2023-05-29T06:13:55;2.65;;;1.55;;
47760;SDS011;33524;55.434;38.520;2023-05-29T06:16:24;4.93;;;1.60;;
47760;SDS011;33524;55.434;38.520;2023-05-29T06:18:52;4.30;;;1.27;;
47760;SDS011;33524;55.434;38.520;2023-05-29T06:21:20;4.45;;;1.27;;
47760;SDS011;33524;55.434;38.520;2023-05-29T06:23:49;4.47;;;1.65;;
47760;SDS011;33524;55.434;38.520;2023-05-29T06:26:17;2.22;;;1.30;;
47760;SDS011;33524;55.434;38.520;2023-05-29T06:28:47;2.05;;;1.40;;
47760;SDS011;33524;55.434;38.520;2023-05-29T06:31:15;2.67;;;1.12;;
47760;SDS011;33524;55.434;38.520;2023-05-29T06:33:44;1.50;;;1.00;;
47760;SDS011;33524;55.434;38.520;2023-05-29T06:36:12;1.35;;;1.00;;
47760;SDS011;33524;55.434;38.520;2023-05-29T06:38:45;1.60;;;0.90;;
47760;SDS011;33524;55.434;38.520;2023-05-29T06:41:16;2.60;;;1.17;;
47760;SDS011;33524;55.434;38.520;2023-05-29T06:43:44;1.40;;;0.80;;
47760;SDS011;33524;55.434;38.520;2023-05-29T06:46:20;1.12;;;1.00;;
47760;SDS011;33524;55.434;38.520;2023-05-29T06:48:56;1.10;;;0.90;;
47760;SDS011;33524;55.434;38.520;2023-05-29T06:51:24;1.45;;;0.93;;
47760;SDS011;33524;55.434;38.520;2023-05-29T06:53:55;1.55;;;0.88;;
47760;SDS011;33524;55.434;38.520;2023-05-29T06:56:24;1.10;;;0.80;;
47760;SDS011;33524;55.434;38.520;2023-05-29T06:58:54;3.30;;;0.68;;
47760;SDS011;33524;55.434;38.520;2023-05-29T07:01:22;1.90;;;0.70;;
47760;SDS011;33524;55.434;38.520;2023-05-29T07:03:53;1.23;;;0.70;;
47760;SDS011;33524;55.434;38.520;2023-05-29T07:06:22;0.80;;;0.80;;
47760;SDS011;33524;55.434;38.520;2023-05-29T07:08:50;1.00;;;0.80;;
47760;SDS011;33524;55.434;38.520;2023-05-29T07:11:18;0.88;;;0.70;;
47760;SDS011;33524;55.434;38.520;2023-05-29T07:13:47;0.95;;;0.82;;
47760;SDS011;33524;55.434;38.520;2023-05-29T07:16:15;1.95;;;0.80;;
47760;SDS011;33524;55.434;38.520;2023-05-29T07:18:52;1.37;;;0.93;;
47760;SDS011;33524;55.434;38.520;2023-05-29T07:21:20;1.70;;;1.12;;
47760;SDS011;33524;55.434;38.520;2023-05-29T07:23:48;1.65;;;1.12;;
47760;SDS011;33524;55.434;38.520;2023-05-29T07:26:18;2.58;;;1.40;;
47760;SDS011;33524;55.434;38.520;2023-05-29T07:28:46;2.28;;;0.98;;
47760;SDS011;33524;55.434;38.520;2023-05-29T07:31:15;3.33;;;0.90;;
47760;SDS011;33524;55.434;38.520;2023-05-29T07:33:45;2.03;;;1.17;;
47760;SDS011;33524;55.434;38.520;2023-05-29T07:36:15;2.75;;;1.70;;
47760;SDS011;33524;55.434;38.520;2023-05-29T07:38:44;1.77;;;1.10;;
47760;SDS011;33524;55.434;38.520;2023-05-29T07:41:14;1.08;;;0.85;;
47760;SDS011;33524;55.434;38.520;2023-05-29T07:43:48;2.05;;;1.00;;
47760;SDS011;33524;55.434;38.520;2023-05-29T07:46:19;2.42;;;1.30;;
47760;SDS011;33524;55.434;38.520;2023-05-29T07:48:48;2.22;;;0.85;;
47760;SDS011;33524;55.434;38.520;2023-05-29T07:51:17;1.60;;;0.88;;
47760;SDS011;33524;55.434;38.520;2023-05-29T07:53:46;1.67;;;1.00;;
47760;SDS011;33524;55.434;38.520;2023-05-29T07:56:15;2.12;;;1.10;;
47760;SDS011;33524;55.434;38.520;2023-05-29T07:58:44;1.92;;;1.10;;
47760;SDS011;33524;55.434;38.520;2023-05-29T08:01:14;1.00;;;0.77;;
47760;SDS011;33524;55.434;38.520;2023-05-29T08:03:55;1.50;;;0.93;;
47760;SDS011;33524;55.434;38.520;2023-05-29T08:06:24;3.20;;;1.40;;
47760;SDS011;33524;55.434;38.520;2023-05-29T08:08:56;3.25;;;1.27;;
47760;SDS011;33524;55.434;38.520;2023-05-29T08:11:36;2.42;;;1.00;;
47760;SDS011;33524;55.434;38.520;2023-05-29T08:14:05;0.98;;;0.70;;
47760;SDS011;33524;55.434;38.520;2023-05-29T08:16:33;1.92;;;1.00;;
47760;SDS011;33524;55.434;38.520;2023-05-29T08:19:01;2.05;;;1.05;;
47760;SDS011;33524;55.434;38.520;2023-05-29T08:21:30;3.80;;;0.80;;
47760;SDS011;33524;55.434;38.520;2023-05-29T08:23:59;1.77;;;1.00;;
47760;SDS011;33524;55.434;38.520;2023-05-29T08:26:27;2.15;;;0.80;;
47760;SDS011;33524;55.434;38.520;2023-05-29T08:28:56;3.42;;;1.25;;
47760;SDS011;33524;55.434;38.520;2023-05-29T08:31:24;2.08;;;0.90;;
47760;SDS011;33524;55.434;38.520;2023-05-29T08:33:53;1.42;;;0.70;;
47760;SDS011;33524;55.434;38.520;2023-05-29T08:36:22;1.65;;;1.05;;
47760;SDS011;33524;55.434;38.520;2023-05-29T08:38:50;3.85;;;1.62;;
47760;SDS011;33524;55.434;38.520;2023-05-29T08:41:23;2.58;;;1.40;;
47760;SDS011;33524;55.434;38.520;2023-05-29T08:43:58;1.92;;;0.80;;
47760;SDS011;33524;55.434;38.520;2023-05-29T08:46:33;1.62;;;0.93;;
47760;SDS011;33524;55.434;38.520;2023-05-29T08:49:03;1.58;;;1.10;;
47760;SDS011;33524;55.434;38.520;2023-05-29T08:51:32;2.25;;;0.62;;
47760;SDS011;33524;55.434;38.520;2023-05-29T08:54:06;1.83;;;1.40;;
47760;SDS011;33524;55.434;38.520;2023-05-29T08:56:34;3.55;;;0.90;;
47760;SDS011;33524;55.434;38.520;2023-05-29T08:59:03;1.20;;;0.70;;
47760;SDS011;33524;55.434;38.520;2023-05-29T09:01:34;1.42;;;0.75;;
47760;SDS011;33524;55.434;38.520;2023-05-29T09:04:03;2.53;;;0.98;;
47760;SDS011;33524;55.434;38.520;2023-05-29T09:06:31;2.08;;;1.05;;
47760;SDS011;33524;55.434;38.520;2023-05-29T09:09:00;2.25;;;0.82;;
47760;SDS011;33524;55.434;38.520;2023-05-29T09:11:28;2.30;;;1.37;;
47760;SDS011;33524;55.434;38.520;2023-05-29T09:13:56;2.50;;;1.30;;
47760;SDS011;33524;55.434;38.520;2023-05-29T09:16:26;3.42;;;1.20;;
47760;SDS011;33524;55.434;38.520;2023-05-29T09:19:04;1.00;;;0.85;;
47760;SDS011;33524;55.434;38.520;2023-05-29T09:21:34;3.35;;;1.00;;
47760;SDS011;33524;55.434;38.520;2023-05-29T09:24:04;1.42;;;0.90;;
47760;SDS011;33524;55.434;38.520;2023-05-29T09:26:32;2.95;;;0.77;;
47760;SDS011;33524;55.434;38.520;2023-05-29T09:29:01;2.28;;;1.10;;
47760;SDS011;33524;55.434;38.520;2023-05-29T09:31:45;2.30;;;1.30;;
47760;SDS011;33524;55.434;38.520;2023-05-29T09:34:15;3.15;;;1.10;;
47760;SDS011;33524;55.434;38.520;2023-05-29T09:36:43;2.30;;;0.88;;
47760;SDS011;33524;55.434;38.520;2023-05-29T09:39:11;2.03;;;1.20;;
47760;SDS011;33524;55.434;38.520;2023-05-29T09:41:44;3.60;;;1.35;;
47760;SDS011;33524;55.434;38.520;2023-05-29T09:44:15;2.07;;;1.13;;
47760;SDS011;33524;55.434;38.520;2023-05-29T09:46:44;1.55;;;1.08;;
47760;SDS011;33524;55.434;38.520;2023-05-29T09:49:13;1.65;;;0.95;;
47760;SDS011;33524;55.434;38.520;2023-05-29T09:51:41;1.87;;;1.20;;
47760;SDS011;33524;55.434;38.520;2023-05-29T09:54:15;2.53;;;1.08;;
47760;SDS011;33524;55.434;38.520;2023-05-29T09:56:44;1.92;;;1.30;;
47760;SDS011;33524;55.434;38.520;2023-05-29T09:59:14;3.47;;;1.10;;
47760;SDS011;33524;55.434;38.520;2023-05-29T10:01:43;2.17;;;1.20;;
47760;SDS011;33524;55.434;38.520;2023-05-29T10:04:12;3.28;;;1.23;;
47760;SDS011;33524;55.434;38.520;2023-05-29T10:06:41;2.35;;;1.12;;
47760;SDS011;33524;55.434;38.520;2023-05-29T10:09:15;2.10;;;1.15;;
47760;SDS011;33524;55.434;38.520;2023-05-29T10:14:17;1.48;;;1.10;;
47760;SDS011;33524;55.434;38.520;2023-05-29T10:16:50;1.87;;;0.95;;
47760;SDS011;33524;55.434;38.520;2023-05-29T10:19:33;2.45;;;1.10;;
47760;SDS011;33524;55.434;38.520;2023-05-29T10:22:06;3.40;;;1.42;;
47760;SDS011;33524;55.434;38.520;2023-05-29T10:24:35;2.45;;;1.33;;
47760;SDS011;33524;55.434;38.520;2023-05-29T10:27:05;1.25;;;1.00;;
47760;SDS011;33524;55.434;38.520;2023-05-29T10:37:37;4.07;;;1.00;;
47760;SDS011;33524;55.434;38.520;2023-05-29T10:40:26;2.70;;;1.23;;
47760;SDS011;33524;55.434;38.520;2023-05-29T10:42:55;3.87;;;1.30;;
47760;SDS011;33524;55.434;38.520;2023-05-29T10:53:18;3.15;;;0.98;;
47760;SDS011;33524;55.434;38.520;2023-05-29T10:55:52;0.85;;;0.65;;
47760;SDS011;33524;55.434;38.520;2023-05-29T10:58:22;1.58;;;1.00;;
47760;SDS011;33524;55.434;38.520;2023-05-29T11:00:52;1.70;;;0.88;;
47760;SDS011;33524;55.434;38.520;2023-05-29T11:03:24;1.70;;;1.02;;
47760;SDS011;33524;55.434;38.520;2023-05-29T11:08:58;0.68;;;0.68;;
47760;SDS011;33524;55.434;38.520;2023-05-29T11:11:32;4.10;;;0.88;;
47760;SDS011;33524;55.434;38.520;2023-05-29T11:14:13;1.87;;;1.30;;
47760;SDS011;33524;55.434;38.520;2023-05-29T11:16:41;2.33;;;1.10;;
47760;SDS011;33524;55.434;38.520;2023-05-29T11:19:09;4.43;;;1.73;;
47760;SDS011;33524;55.434;38.520;2023-05-29T11:21:49;2.70;;;1.00;;
47760;SDS011;33524;55.434;38.520;2023-05-29T11:24:23;1.02;;;0.73;;
47760;SDS011;33524;55.434;38.520;2023-05-29T11:26:55;1.12;;;0.88;;
47760;SDS011;33524;55.434;38.520;2023-05-29T11:29:28;2.53;;;1.03;;
47760;SDS011;33524;55.434;38.520;2023-05-29T11:32:16;1.23;;;0.80;;
47760;SDS011;33524;55.434;38.520;2023-05-29T11:34:44;3.92;;;1.40;;
47760;SDS011;33524;55.434;38.520;2023-05-29T11:37:15;0.98;;;0.77;;
47760;SDS011;33524;55.434;38.520;2023-05-29T11:39:43;2.78;;;0.90;;
47760;SDS011;33524;55.434;38.520;2023-05-29T11:42:13;2.83;;;1.58;;
47760;SDS011;33524;55.434;38.520;2023-05-29T11:44:41;1.12;;;0.90;;
47760;SDS011;33524;55.434;38.520;2023-05-29T11:47:09;1.77;;;1.10;;
47760;SDS011;33524;55.434;38.520;2023-05-29T11:49:50;1.95;;;1.08;;
47760;SDS011;33524;55.434;38.520;2023-05-29T11:52:18;2.30;;;1.40;;
47760;SDS011;33524;55.434;38.520;2023-05-29T11:54:50;2.23;;;1.20;;
47760;SDS011;33524;55.434;38.520;2023-05-29T11:57:21;1.83;;;1.10;;
47760;SDS011;33524;55.434;38.520;2023-05-29T11:59:49;0.70;;;0.70;;
47760;SDS011;33524;55.434;38.520;2023-05-29T12:02:20;2.10;;;1.00;;
47760;SDS011;33524;55.434;38.520;2023-05-29T12:05:03;1.80;;;0.90;;
47760;SDS011;33524;55.434;38.520;2023-05-29T12:07:33;1.70;;;0.95;;
47760;SDS011;33524;55.434;38.520;2023-05-29T12:10:09;2.78;;;1.27;;
47760;SDS011;33524;55.434;38.520;2023-05-29T12:12:38;2.80;;;1.20;;
47760;SDS011;33524;55.434;38.520;2023-05-29T12:15:07;2.17;;;1.10;;
47760;SDS011;33524;55.434;38.520;2023-05-29T12:17:36;2.45;;;0.90;;
47760;SDS011;33524;55.434;38.520;2023-05-29T12:20:05;1.55;;;0.85;;
47760;SDS011;33524;55.434;38.520;2023-05-29T12:22:37;1.92;;;1.12;;
47760;SDS011;33524;55.434;38.520;2023-05-29T12:25:13;1.87;;;1.10;;
47760;SDS011;33524;55.434;38.520;2023-05-29T12:27:46;1.27;;;0.93;;
47760;SDS011;33524;55.434;38.520;2023-05-29T12:32:59;2.42;;;1.25;;
47760;SDS011;33524;55.434;38.520;2023-05-29T12:35:29;2.17;;;0.98;;
47760;SDS011;33524;55.434;38.520;2023-05-29T12:40:28;2.75;;;1.23;;
47760;SDS011;33524;55.434;38.520;2023-05-29T12:42:58;2.17;;;0.90;;
47760;SDS011;33524;55.434;38.520;2023-05-29T12:45:29;1.30;;;0.90;;
47760;SDS011;33524;55.434;38.520;2023-05-29T12:47:59;1.90;;;1.02;;
47760;SDS011;33524;55.434;38.520;2023-05-29T12:50:40;1.20;;;1.02;;
47760;SDS011;33524;55.434;38.520;2023-05-29T12:53:09;3.33;;;1.30;;
47760;SDS011;33524;55.434;38.520;2023-05-29T12:55:39;1.48;;;0.98;;
47760;SDS011;33524;55.434;38.520;2023-05-29T12:58:09;1.75;;;1.17;;
47760;SDS011;33524;55.434;38.520;2023-05-29T13:00:40;1.67;;;1.20;;
47760;SDS011;33524;55.434;38.520;2023-05-29T13:03:10;1.52;;;1.15;;
47760;SDS011;33524;55.434;38.520;2023-05-29T13:05:39;2.37;;;1.00;;
47760;SDS011;33524;55.434;38.520;2023-05-29T13:08:07;3.12;;;1.30;;
47760;SDS011;33524;55.434;38.520;2023-05-29T13:10:35;3.67;;;1.10;;
47760;SDS011;33524;55.434;38.520;2023-05-29T13:13:04;3.53;;;1.20;;
47760;SDS011;33524;55.434;38.520;2023-05-29T13:15:33;1.30;;;0.98;;
47760;SDS011;33524;55.434;38.520;2023-05-29T13:18:01;1.70;;;1.10;;
47760;SDS011;33524;55.434;38.520;2023-05-29T13:20:30;2.15;;;1.10;;
47760;SDS011;33524;55.434;38.520;2023-05-29T13:22:59;2.25;;;1.20;;
47760;SDS011;33524;55.434;38.520;2023-05-29T13:25:27;1.75;;;0.90;;
47760;SDS011;33524;55.434;38.520;2023-05-29T13:28:08;2.87;;;0.77;;
47760;SDS011;33524;55.434;38.520;2023-05-29T13:30:36;3.17;;;1.60;;
47760;SDS011;33524;55.434;38.520;2023-05-29T13:33:05;3.10;;;1.05;;
47760;SDS011;33524;55.434;38.520;2023-05-29T13:35:33;2.80;;;1.10;;
47760;SDS011;33524;55.434;38.520;2023-05-29T13:38:01;3.10;;;1.23;;
47760;SDS011;33524;55.434;38.520;2023-05-29T13:40:29;2.15;;;1.30;;
47760;SDS011;33524;55.434;38.520;2023-05-29T13:42:59;1.65;;;0.90;;
47760;SDS011;33524;55.434;38.520;2023-05-29T13:45:27;3.50;;;1.10;;
47760;SDS011;33524;55.434;38.520;2023-05-29T13:47:56;1.95;;;0.95;;
47760;SDS011;33524;55.434;38.520;2023-05-29T13:50:36;1.35;;;1.00;;
47760;SDS011;33524;55.434;38.520;2023-05-29T13:53:05;1.87;;;1.10;;
47760;SDS011;33524;55.434;38.520;2023-05-29T13:55:33;1.35;;;0.90;;
47760;SDS011;33524;55.434;38.520;2023-05-29T13:58:01;2.53;;;1.15;;
47760;SDS011;33524;55.434;38.520;2023-05-29T14:00:29;2.80;;;0.98;;
47760;SDS011;33524;55.434;38.520;2023-05-29T14:02:58;3.30;;;1.25;;
47760;SDS011;33524;55.434;38.520;2023-05-29T14:05:26;1.52;;;0.82;;
47760;SDS011;33524;55.434;38.520;2023-05-29T14:07:54;2.75;;;1.25;;
47760;SDS011;33524;55.434;38.520;2023-05-29T14:10:23;1.52;;;0.95;;
47760;SDS011;33524;55.434;38.520;2023-05-29T14:12:51;1.73;;;1.10;;
47760;SDS011;33524;55.434;38.520;2023-05-29T14:15:19;1.30;;;1.12;;
47760;SDS011;33524;55.434;38.520;2023-05-29T14:17:47;1.62;;;1.20;;
47760;SDS011;33524;55.434;38.520;2023-05-29T14:20:15;3.28;;;0.90;;
47760;SDS011;33524;55.434;38.520;2023-05-29T14:22:43;1.60;;;1.10;;
47760;SDS011;33524;55.434;38.520;2023-05-29T14:25:12;1.05;;;0.95;;
47760;SDS011;33524;55.434;38.520;2023-05-29T14:27:40;3.12;;;1.30;;
47760;SDS011;33524;55.434;38.520;2023-05-29T14:30:08;1.48;;;1.00;;
47760;SDS011;33524;55.434;38.520;2023-05-29T14:32:37;2.35;;;1.10;;
47760;SDS011;33524;55.434;38.520;2023-05-29T14:35:05;1.77;;;1.10;;
47760;SDS011;33524;55.434;38.520;2023-05-29T14:37:33;5.18;;;1.23;;
47760;SDS011;33524;55.434;38.520;2023-05-29T14:40:01;2.12;;;1.27;;
47760;SDS011;33524;55.434;38.520;2023-05-29T14:42:32;1.98;;;0.90;;
47760;SDS011;33524;55.434;38.520;2023-05-29T14:45:00;1.08;;;0.90;;
47760;SDS011;33524;55.434;38.520;2023-05-29T14:47:32;1.48;;;0.95;;
47760;SDS011;33524;55.434;38.520;2023-05-29T14:50:01;3.05;;;1.20;;
47760;SDS011;33524;55.434;38.520;2023-05-29T14:52:30;1.85;;;1.10;;
47760;SDS011;33524;55.434;38.520;2023-05-29T14:55:01;2.53;;;1.10;;
47760;SDS011;33524;55.434;38.520;2023-05-29T14:57:32;2.00;;;1.30;;
47760;SDS011;33524;55.434;38.520;2023-05-29T15:00:02;2.30;;;1.00;;
47760;SDS011;33524;55.434;38.520;2023-05-29T15:05:05;2.03;;;1.20;;
47760;SDS011;33524;55.434;38.520;2023-05-29T15:07:35;1.98;;;1.12;;
47760;SDS011;33524;55.434;38.520;2023-05-29T15:10:03;2.53;;;1.10;;
47760;SDS011;33524;55.434;38.520;2023-05-29T15:12:32;1.50;;;1.10;;
47760;SDS011;33524;55.434;38.520;2023-05-29T15:15:02;2.12;;;1.15;;
47760;SDS011;33524;55.434;38.520;2023-05-29T15:17:31;2.83;;;1.10;;
47760;SDS011;33524;55.434;38.520;2023-05-29T15:19:59;1.98;;;1.10;;
47760;SDS011;33524;55.434;38.520;2023-05-29T15:22:29;1.92;;;1.12;;
47760;SDS011;33524;55.434;38.520;2023-05-29T15:24:57;1.85;;;0.90;;
47760;SDS011;33524;55.434;38.520;2023-05-29T15:27:25;2.05;;;1.08;;
47760;SDS011;33524;55.434;38.520;2023-05-29T15:30:08;2.00;;;1.00;;
47760;SDS011;33524;55.434;38.520;2023-05-29T15:32:42;2.05;;;1.05;;
47760;SDS011;33524;55.434;38.520;2023-05-29T15:35:13;1.48;;;1.00;;
47760;SDS011;33524;55.434;38.520;2023-05-29T15:37:42;1.95;;;1.10;;